sensor_id;sensor_type;location;lat;lon;timestamp;P1;durP1;ratioP1;P2;durP2;ratioP2
12493;SDS011;8260;51.422;6.786;2023-07-20T01:34:14;6.38;;;5.38;;
12493;SDS011;8260;51.422;6.786;2023-07-20T01:45:35;8.50;;;5.95;;
12493;SDS011;8260;51.422;6.786;2023-07-20T01:48:04;9.95;;;6.07;;
12493;SDS011;8260;51.422;6.786;2023-07-20T01:50:33;9.88;;;6.53;;
12493;SDS011;8260;51.422;6.786;2023-07-20T01:53:14;9.27;;;5.93;;
12493;SDS011;8260;51.422;6.786;2023-07-20T01:58:13;9.30;;;6.13;;
12493;SDS011;8260;51.422;6.786;2023-07-20T02:00:51;9.02;;;6.68;;
12493;SDS011;8260;51.422;6.786;2023-07-20T02:03:29;9.77;;;5.55;;
12493;SDS011;8260;51.422;6.786;2023-07-20T02:05:58;8.98;;;6.88;;
12493;SDS011;8260;51.422;6.786;2023-07-20T02:08:27;7.45;;;5.90;;
12493;SDS011;8260;51.422;6.786;2023-07-20T02:10:56;9.48;;;6.72;;
12493;SDS011;8260;51.422;6.786;2023-07-20T02:13:37;8.15;;;6.20;;
12493;SDS011;8260;51.422;6.786;2023-07-20T02:16:13;10.35;;;6.03;;
12493;SDS011;8260;51.422;6.786;2023-07-20T02:18:57;9.57;;;6.70;;
12493;SDS011;8260;51.422;6.786;2023-07-20T02:21:27;7.25;;;6.13;;
12493;SDS011;8260;51.422;6.786;2023-07-20T02:23:56;7.95;;;6.43;;
12493;SDS011;8260;51.422;6.786;2023-07-20T02:26:25;9.02;;;6.60;;
12493;SDS011;8260;51.422;6.786;2023-07-20T02:28:54;10.70;;;6.78;;
12493;SDS011;8260;51.422;6.786;2023-07-20T02:31:24;8.63;;;7.00;;
12493;SDS011;8260;51.422;6.786;2023-07-20T02:34:01;7.72;;;6.80;;
12493;SDS011;8260;51.422;6.786;2023-07-20T02:36:29;8.80;;;6.80;;
12493;SDS011;8260;51.422;6.786;2023-07-20T02:38:59;11.70;;;7.03;;
12493;SDS011;8260;51.422;6.786;2023-07-20T02:41:30;11.18;;;7.68;;
12493;SDS011;8260;51.422;6.786;2023-07-20T02:44:02;9.68;;;6.43;;
12493;SDS011;8260;51.422;6.786;2023-07-20T02:46:33;10.65;;;7.28;;
12493;SDS011;8260;51.422;6.786;2023-07-20T02:49:02;14.98;;;7.38;;
12493;SDS011;8260;51.422;6.786;2023-07-20T02:51:30;8.88;;;7.90;;
12493;SDS011;8260;51.422;6.786;2023-07-20T02:53:59;11.38;;;7.75;;
12493;SDS011;8260;51.422;6.786;2023-07-20T02:56:44;11.15;;;7.95;;
12493;SDS011;8260;51.422;6.786;2023-07-20T02:59:15;10.40;;;7.43;;
12493;SDS011;8260;51.422;6.786;2023-07-20T03:01:45;10.48;;;7.72;;
12493;SDS011;8260;51.422;6.786;2023-07-20T03:04:16;14.70;;;8.75;;
12493;SDS011;8260;51.422;6.786;2023-07-20T03:06:58;10.20;;;7.78;;
12493;SDS011;8260;51.422;6.786;2023-07-20T03:09:28;12.95;;;8.73;;
12493;SDS011;8260;51.422;6.786;2023-07-20T03:12:13;14.13;;;8.95;;
12493;SDS011;8260;51.422;6.786;2023-07-20T03:17:34;14.00;;;9.07;;
12493;SDS011;8260;51.422;6.786;2023-07-20T03:20:04;8.98;;;7.82;;
12493;SDS011;8260;51.422;6.786;2023-07-20T03:22:36;9.95;;;8.13;;
12493;SDS011;8260;51.422;6.786;2023-07-20T03:25:05;9.13;;;8.20;;
12493;SDS011;8260;51.422;6.786;2023-07-20T03:27:45;13.00;;;8.77;;
12493;SDS011;8260;51.422;6.786;2023-07-20T03:30:23;11.88;;;8.15;;
12493;SDS011;8260;51.422;6.786;2023-07-20T03:32:57;12.93;;;8.70;;
12493;SDS011;8260;51.422;6.786;2023-07-20T03:35:27;10.68;;;9.55;;
12493;SDS011;8260;51.422;6.786;2023-07-20T03:37:56;10.98;;;8.32;;
12493;SDS011;8260;51.422;6.786;2023-07-20T03:40:39;11.88;;;9.25;;
12493;SDS011;8260;51.422;6.786;2023-07-20T03:43:19;10.27;;;8.88;;
12493;SDS011;8260;51.422;6.786;2023-07-20T03:45:48;10.85;;;9.25;;
12493;SDS011;8260;51.422;6.786;2023-07-20T03:48:33;10.52;;;9.43;;
12493;SDS011;8260;51.422;6.786;2023-07-20T03:51:02;12.40;;;9.73;;
12493;SDS011;8260;51.422;6.786;2023-07-20T03:53:31;13.32;;;11.15;;
12493;SDS011;8260;51.422;6.786;2023-07-20T03:56:06;15.05;;;10.05;;
12493;SDS011;8260;51.422;6.786;2023-07-20T03:58:36;14.52;;;10.43;;
12493;SDS011;8260;51.422;6.786;2023-07-20T04:01:05;14.63;;;10.20;;
12493;SDS011;8260;51.422;6.786;2023-07-20T04:03:36;14.82;;;11.70;;
12493;SDS011;8260;51.422;6.786;2023-07-20T04:06:05;12.98;;;11.07;;
12493;SDS011;8260;51.422;6.786;2023-07-20T04:08:35;14.48;;;11.27;;
12493;SDS011;8260;51.422;6.786;2023-07-20T04:13:40;15.43;;;11.23;;
12493;SDS011;8260;51.422;6.786;2023-07-20T04:16:22;18.55;;;14.30;;
12493;SDS011;8260;51.422;6.786;2023-07-20T04:18:55;20.33;;;14.77;;
12493;SDS011;8260;51.422;6.786;2023-07-20T04:21:28;21.55;;;17.48;;
12493;SDS011;8260;51.422;6.786;2023-07-20T04:26:32;20.42;;;18.15;;
12493;SDS011;8260;51.422;6.786;2023-07-20T04:29:16;20.63;;;18.42;;
12493;SDS011;8260;51.422;6.786;2023-07-20T04:31:52;25.13;;;18.65;;
12493;SDS011;8260;51.422;6.786;2023-07-20T04:34:23;19.98;;;16.25;;
12493;SDS011;8260;51.422;6.786;2023-07-20T04:39:52;21.10;;;17.33;;
12493;SDS011;8260;51.422;6.786;2023-07-20T04:42:21;20.85;;;18.27;;
12493;SDS011;8260;51.422;6.786;2023-07-20T04:47:39;21.38;;;17.50;;
12493;SDS011;8260;51.422;6.786;2023-07-20T04:52:50;18.75;;;16.77;;
12493;SDS011;8260;51.422;6.786;2023-07-20T04:55:33;18.73;;;16.55;;
12493;SDS011;8260;51.422;6.786;2023-07-20T05:00:34;20.83;;;16.73;;
12493;SDS011;8260;51.422;6.786;2023-07-20T05:03:04;21.40;;;16.85;;
12493;SDS011;8260;51.422;6.786;2023-07-20T05:05:41;20.58;;;17.50;;
12493;SDS011;8260;51.422;6.786;2023-07-20T05:10:51;21.50;;;16.52;;
12493;SDS011;8260;51.422;6.786;2023-07-20T05:13:19;19.42;;;16.27;;
12493;SDS011;8260;51.422;6.786;2023-07-20T05:16:02;19.40;;;16.48;;
12493;SDS011;8260;51.422;6.786;2023-07-20T05:18:31;19.15;;;15.88;;
12493;SDS011;8260;51.422;6.786;2023-07-20T05:20:59;20.52;;;16.73;;
12493;SDS011;8260;51.422;6.786;2023-07-20T05:23:31;15.68;;;14.05;;
12493;SDS011;8260;51.422;6.786;2023-07-20T05:36:36;16.08;;;11.32;;
12493;SDS011;8260;51.422;6.786;2023-07-20T05:39:09;15.10;;;11.15;;
12493;SDS011;8260;51.422;6.786;2023-07-20T05:41:39;11.48;;;10.15;;
12493;SDS011;8260;51.422;6.786;2023-07-20T05:44:09;12.13;;;8.63;;
12493;SDS011;8260;51.422;6.786;2023-07-20T05:47:23;7.60;;;6.63;;
12493;SDS011;8260;51.422;6.786;2023-07-20T05:49:52;8.20;;;7.40;;
12493;SDS011;8260;51.422;6.786;2023-07-20T05:55:26;9.23;;;7.57;;
12493;SDS011;8260;51.422;6.786;2023-07-20T06:01:07;8.32;;;6.65;;
12493;SDS011;8260;51.422;6.786;2023-07-20T06:03:37;9.43;;;7.40;;
12493;SDS011;8260;51.422;6.786;2023-07-20T06:06:27;9.77;;;7.50;;
12493;SDS011;8260;51.422;6.786;2023-07-20T06:08:55;9.55;;;7.72;;
12493;SDS011;8260;51.422;6.786;2023-07-20T06:11:27;11.63;;;8.32;;
12493;SDS011;8260;51.422;6.786;2023-07-20T06:14:09;10.68;;;7.82;;
12493;SDS011;8260;51.422;6.786;2023-07-20T06:21:56;11.52;;;8.45;;
12493;SDS011;8260;51.422;6.786;2023-07-20T06:24:25;8.55;;;7.65;;
12493;SDS011;8260;51.422;6.786;2023-07-20T06:26:59;11.15;;;9.48;;
12493;SDS011;8260;51.422;6.786;2023-07-20T06:29:29;11.15;;;9.55;;
12493;SDS011;8260;51.422;6.786;2023-07-20T06:31:58;12.27;;;11.05;;
12493;SDS011;8260;51.422;6.786;2023-07-20T06:34:27;15.23;;;12.02;;
12493;SDS011;8260;51.422;6.786;2023-07-20T06:37:16;13.88;;;12.38;;
12493;SDS011;8260;51.422;6.786;2023-07-20T06:39:46;13.10;;;11.05;;
12493;SDS011;8260;51.422;6.786;2023-07-20T06:42:19;13.32;;;11.80;;
12493;SDS011;8260;51.422;6.786;2023-07-20T06:45:09;11.18;;;10.00;;
12493;SDS011;8260;51.422;6.786;2023-07-20T06:47:38;11.48;;;10.32;;
12493;SDS011;8260;51.422;6.786;2023-07-20T06:50:07;11.80;;;10.60;;
12493;SDS011;8260;51.422;6.786;2023-07-20T06:52:42;14.45;;;11.50;;
12493;SDS011;8260;51.422;6.786;2023-07-20T06:55:15;14.35;;;12.15;;
12493;SDS011;8260;51.422;6.786;2023-07-20T06:57:50;15.60;;;14.00;;
12493;SDS011;8260;51.422;6.786;2023-07-20T07:00:25;22.40;;;19.40;;
12493;SDS011;8260;51.422;6.786;2023-07-20T07:02:54;18.88;;;16.08;;
12493;SDS011;8260;51.422;6.786;2023-07-20T07:05:23;16.63;;;13.73;;
12493;SDS011;8260;51.422;6.786;2023-07-20T07:08:01;17.05;;;12.32;;
12493;SDS011;8260;51.422;6.786;2023-07-20T07:10:43;14.48;;;12.93;;
12493;SDS011;8260;51.422;6.786;2023-07-20T07:13:14;16.55;;;13.45;;
12493;SDS011;8260;51.422;6.786;2023-07-20T07:15:43;13.40;;;11.55;;
12493;SDS011;8260;51.422;6.786;2023-07-20T07:18:12;14.23;;;12.40;;
12493;SDS011;8260;51.422;6.786;2023-07-20T07:20:49;15.07;;;12.25;;
12493;SDS011;8260;51.422;6.786;2023-07-20T07:23:18;15.20;;;12.07;;
12493;SDS011;8260;51.422;6.786;2023-07-20T07:25:47;14.07;;;11.82;;
12493;SDS011;8260;51.422;6.786;2023-07-20T07:28:18;20.90;;;13.65;;
12493;SDS011;8260;51.422;6.786;2023-07-20T07:31:02;14.35;;;12.43;;
12493;SDS011;8260;51.422;6.786;2023-07-20T07:34:01;15.48;;;12.02;;
12493;SDS011;8260;51.422;6.786;2023-07-20T07:36:30;15.60;;;13.27;;
12493;SDS011;8260;51.422;6.786;2023-07-20T07:38:58;14.75;;;11.98;;
12493;SDS011;8260;51.422;6.786;2023-07-20T07:41:41;13.88;;;11.55;;
12493;SDS011;8260;51.422;6.786;2023-07-20T07:44:19;10.60;;;9.45;;
12493;SDS011;8260;51.422;6.786;2023-07-20T07:46:49;12.52;;;9.00;;
12493;SDS011;8260;51.422;6.786;2023-07-20T07:49:18;10.98;;;8.00;;
12493;SDS011;8260;51.422;6.786;2023-07-20T07:51:47;8.40;;;7.57;;
12493;SDS011;8260;51.422;6.786;2023-07-20T07:57:00;8.93;;;7.50;;
12493;SDS011;8260;51.422;6.786;2023-07-20T07:59:32;10.00;;;9.00;;
12493;SDS011;8260;51.422;6.786;2023-07-20T08:04:36;8.45;;;7.57;;
12493;SDS011;8260;51.422;6.786;2023-07-20T08:07:05;8.93;;;8.00;;
12493;SDS011;8260;51.422;6.786;2023-07-20T08:09:34;9.05;;;6.38;;
12493;SDS011;8260;51.422;6.786;2023-07-20T08:12:03;7.45;;;4.70;;
12493;SDS011;8260;51.422;6.786;2023-07-20T08:14:33;5.80;;;4.40;;
12493;SDS011;8260;51.422;6.786;2023-07-20T08:17:07;7.53;;;5.28;;
12493;SDS011;8260;51.422;6.786;2023-07-20T08:19:36;7.00;;;6.30;;
12493;SDS011;8260;51.422;6.786;2023-07-20T08:22:08;9.63;;;7.60;;
12493;SDS011;8260;51.422;6.786;2023-07-20T16:35:17;2.13;;;1.33;;
12493;SDS011;8260;51.422;6.786;2023-07-20T16:38:05;2.10;;;1.50;;
12493;SDS011;8260;51.422;6.786;2023-07-20T16:40:37;1.58;;;1.40;;
12493;SDS011;8260;51.422;6.786;2023-07-20T18:36:08;5.85;;;2.72;;
12493;SDS011;8260;51.422;6.786;2023-07-20T18:49:55;4.95;;;2.30;;
12493;SDS011;8260;51.422;6.786;2023-07-20T19:26:26;1.70;;;1.60;;
12493;SDS011;8260;51.422;6.786;2023-07-20T19:28:54;2.05;;;1.50;;
12493;SDS011;8260;51.422;6.786;2023-07-20T19:31:23;2.28;;;1.67;;
12493;SDS011;8260;51.422;6.786;2023-07-20T19:33:51;1.60;;;1.50;;
12493;SDS011;8260;51.422;6.786;2023-07-20T19:36:20;1.30;;;1.20;;
12493;SDS011;8260;51.422;6.786;2023-07-20T19:38:49;1.60;;;1.50;;
12493;SDS011;8260;51.422;6.786;2023-07-20T19:41:16;2.65;;;1.58;;
12493;SDS011;8260;51.422;6.786;2023-07-20T19:43:46;2.35;;;1.85;;
12493;SDS011;8260;51.422;6.786;2023-07-20T19:46:15;3.08;;;1.70;;
12493;SDS011;8260;51.422;6.786;2023-07-20T19:48:44;3.25;;;1.50;;
12493;SDS011;8260;51.422;6.786;2023-07-20T19:51:13;1.70;;;1.60;;
12493;SDS011;8260;51.422;6.786;2023-07-20T19:53:41;3.05;;;1.92;;
12493;SDS011;8260;51.422;6.786;2023-07-20T19:56:13;2.40;;;1.70;;
12493;SDS011;8260;51.422;6.786;2023-07-20T19:58:41;1.70;;;1.60;;
12493;SDS011;8260;51.422;6.786;2023-07-20T20:01:12;2.63;;;1.83;;
12493;SDS011;8260;51.422;6.786;2023-07-20T20:03:43;1.70;;;1.60;;
12493;SDS011;8260;51.422;6.786;2023-07-20T20:06:12;1.98;;;1.70;;
12493;SDS011;8260;51.422;6.786;2023-07-20T20:08:40;3.63;;;1.90;;
12493;SDS011;8260;51.422;6.786;2023-07-20T20:11:09;1.80;;;1.70;;
12493;SDS011;8260;51.422;6.786;2023-07-20T20:13:40;2.45;;;1.80;;
12493;SDS011;8260;51.422;6.786;2023-07-20T20:16:09;2.17;;;1.98;;
12493;SDS011;8260;51.422;6.786;2023-07-20T20:18:38;3.10;;;1.80;;
12493;SDS011;8260;51.422;6.786;2023-07-20T20:21:09;1.83;;;1.73;;
12493;SDS011;8260;51.422;6.786;2023-07-20T20:23:38;3.67;;;2.00;;
12493;SDS011;8260;51.422;6.786;2023-07-20T20:26:07;2.60;;;1.60;;
12493;SDS011;8260;51.422;6.786;2023-07-20T20:28:35;2.78;;;1.90;;
12493;SDS011;8260;51.422;6.786;2023-07-20T20:31:04;2.05;;;1.73;;
12493;SDS011;8260;51.422;6.786;2023-07-20T20:33:33;2.42;;;2.15;;
12493;SDS011;8260;51.422;6.786;2023-07-20T20:36:05;2.42;;;2.22;;
12493;SDS011;8260;51.422;6.786;2023-07-20T20:38:33;2.30;;;2.10;;
12493;SDS011;8260;51.422;6.786;2023-07-20T20:41:05;2.60;;;2.40;;
12493;SDS011;8260;51.422;6.786;2023-07-20T20:43:34;3.58;;;2.38;;
12493;SDS011;8260;51.422;6.786;2023-07-20T20:46:02;2.80;;;2.60;;
12493;SDS011;8260;51.422;6.786;2023-07-20T20:48:32;2.83;;;2.17;;
12493;SDS011;8260;51.422;6.786;2023-07-20T20:51:05;2.92;;;2.60;;
12493;SDS011;8260;51.422;6.786;2023-07-20T20:53:33;4.10;;;2.45;;
12493;SDS011;8260;51.422;6.786;2023-07-20T20:56:02;3.63;;;3.33;;
12493;SDS011;8260;51.422;6.786;2023-07-20T20:58:31;3.97;;;3.15;;
12493;SDS011;8260;51.422;6.786;2023-07-20T21:01:00;4.85;;;3.42;;
12493;SDS011;8260;51.422;6.786;2023-07-20T21:03:29;5.20;;;3.45;;
12493;SDS011;8260;51.422;6.786;2023-07-20T21:05:57;3.95;;;3.63;;
12493;SDS011;8260;51.422;6.786;2023-07-20T21:08:27;3.58;;;3.25;;
12493;SDS011;8260;51.422;6.786;2023-07-20T21:10:57;4.18;;;3.58;;
12493;SDS011;8260;51.422;6.786;2023-07-20T21:13:25;4.07;;;3.72;;
12493;SDS011;8260;51.422;6.786;2023-07-20T21:15:54;3.67;;;3.38;;
12493;SDS011;8260;51.422;6.786;2023-07-20T21:18:23;3.60;;;3.30;;
12493;SDS011;8260;51.422;6.786;2023-07-20T21:20:51;3.85;;;3.55;;
12493;SDS011;8260;51.422;6.786;2023-07-20T21:23:20;4.30;;;3.90;;
12493;SDS011;8260;51.422;6.786;2023-07-20T21:25:50;4.32;;;4.03;;
12493;SDS011;8260;51.422;6.786;2023-07-20T21:28:18;5.20;;;3.60;;
12493;SDS011;8260;51.422;6.786;2023-07-20T21:30:59;5.13;;;4.45;;
12493;SDS011;8260;51.422;6.786;2023-07-20T21:33:28;5.68;;;4.43;;
12493;SDS011;8260;51.422;6.786;2023-07-20T21:35:56;5.95;;;4.50;;
12493;SDS011;8260;51.422;6.786;2023-07-20T21:38:25;6.85;;;4.80;;
12493;SDS011;8260;51.422;6.786;2023-07-20T21:40:55;6.40;;;4.53;;
12493;SDS011;8260;51.422;6.786;2023-07-20T21:43:23;5.72;;;4.53;;
12493;SDS011;8260;51.422;6.786;2023-07-20T21:45:51;5.78;;;4.00;;
12493;SDS011;8260;51.422;6.786;2023-07-20T21:48:20;4.40;;;3.95;;
12493;SDS011;8260;51.422;6.786;2023-07-20T21:50:48;5.90;;;4.20;;
12493;SDS011;8260;51.422;6.786;2023-07-20T21:53:17;5.15;;;4.68;;
12493;SDS011;8260;51.422;6.786;2023-07-20T21:55:46;5.32;;;4.22;;
12493;SDS011;8260;51.422;6.786;2023-07-20T21:58:16;4.70;;;4.30;;
12493;SDS011;8260;51.422;6.786;2023-07-20T22:00:45;5.45;;;4.93;;
12493;SDS011;8260;51.422;6.786;2023-07-20T22:03:17;5.20;;;4.70;;
12493;SDS011;8260;51.422;6.786;2023-07-20T22:05:48;5.00;;;4.50;;
12493;SDS011;8260;51.422;6.786;2023-07-20T22:08:18;5.47;;;4.97;;
12493;SDS011;8260;51.422;6.786;2023-07-20T22:10:47;5.10;;;4.60;;
12493;SDS011;8260;51.422;6.786;2023-07-20T22:13:19;5.65;;;5.05;;
12493;SDS011;8260;51.422;6.786;2023-07-20T22:15:48;5.40;;;4.90;;
12493;SDS011;8260;51.422;6.786;2023-07-20T22:18:17;5.22;;;4.72;;
12493;SDS011;8260;51.422;6.786;2023-07-20T22:21:01;5.63;;;5.13;;
12493;SDS011;8260;51.422;6.786;2023-07-20T22:23:31;6.25;;;4.35;;
12493;SDS011;8260;51.422;6.786;2023-07-20T22:25:59;6.50;;;4.95;;
12493;SDS011;8260;51.422;6.786;2023-07-20T22:28:29;6.15;;;4.55;;
12493;SDS011;8260;51.422;6.786;2023-07-20T22:30:58;5.60;;;5.03;;
12493;SDS011;8260;51.422;6.786;2023-07-20T22:33:27;5.18;;;4.68;;
12493;SDS011;8260;51.422;6.786;2023-07-20T22:35:56;5.10;;;4.75;;
12493;SDS011;8260;51.422;6.786;2023-07-20T22:38:24;5.00;;;4.50;;
12493;SDS011;8260;51.422;6.786;2023-07-20T22:40:53;5.10;;;4.70;;
12493;SDS011;8260;51.422;6.786;2023-07-20T22:43:22;5.20;;;4.70;;
12493;SDS011;8260;51.422;6.786;2023-07-20T22:45:53;5.75;;;5.20;;
12493;SDS011;8260;51.422;6.786;2023-07-20T22:48:22;5.75;;;5.25;;
12493;SDS011;8260;51.422;6.786;2023-07-20T22:50:54;4.85;;;4.45;;
12493;SDS011;8260;51.422;6.786;2023-07-20T22:53:25;5.57;;;5.07;;
12493;SDS011;8260;51.422;6.786;2023-07-20T22:55:55;5.70;;;5.13;;
12493;SDS011;8260;51.422;6.786;2023-07-20T22:58:24;5.60;;;5.10;;
12493;SDS011;8260;51.422;6.786;2023-07-20T23:00:54;6.50;;;5.60;;
12493;SDS011;8260;51.422;6.786;2023-07-20T23:03:22;6.03;;;5.53;;
12493;SDS011;8260;51.422;6.786;2023-07-20T23:05:51;5.60;;;5.20;;
12493;SDS011;8260;51.422;6.786;2023-07-20T23:08:20;5.95;;;5.35;;
12493;SDS011;8260;51.422;6.786;2023-07-20T23:10:48;6.07;;;5.57;;
12493;SDS011;8260;51.422;6.786;2023-07-20T23:13:17;6.13;;;5.63;;
12493;SDS011;8260;51.422;6.786;2023-07-20T23:15:48;6.53;;;5.50;;
12493;SDS011;8260;51.422;6.786;2023-07-20T23:18:17;6.50;;;6.00;;
12493;SDS011;8260;51.422;6.786;2023-07-20T23:20:46;5.53;;;5.13;;
12493;SDS011;8260;51.422;6.786;2023-07-20T23:23:15;6.20;;;5.68;;
12493;SDS011;8260;51.422;6.786;2023-07-20T23:25:43;6.68;;;6.00;;
12493;SDS011;8260;51.422;6.786;2023-07-20T23:28:12;6.40;;;5.80;;
12493;SDS011;8260;51.422;6.786;2023-07-20T23:30:44;6.60;;;6.10;;
12493;SDS011;8260;51.422;6.786;2023-07-20T23:33:15;5.90;;;5.40;;
12493;SDS011;8260;51.422;6.786;2023-07-20T23:35:49;6.45;;;5.85;;
12493;SDS011;8260;51.422;6.786;2023-07-20T23:38:18;6.97;;;6.45;;
12493;SDS011;8260;51.422;6.786;2023-07-20T23:40:47;6.32;;;5.82;;
12493;SDS011;8260;51.422;6.786;2023-07-20T23:43:15;6.43;;;5.90;;
12493;SDS011;8260;51.422;6.786;2023-07-20T23:45:44;6.35;;;5.75;;
12493;SDS011;8260;51.422;6.786;2023-07-20T23:48:12;6.22;;;5.72;;
12493;SDS011;8260;51.422;6.786;2023-07-20T23:50:41;6.13;;;5.53;;
12493;SDS011;8260;51.422;6.786;2023-07-20T23:53:11;7.03;;;6.43;;
12493;SDS011;8260;51.422;6.786;2023-07-20T23:55:40;6.35;;;5.80;;
12493;SDS011;8260;51.422;6.786;2023-07-20T23:58:08;5.85;;;5.30;;
